createdAt,value
2023-02-14T00:00:29.629Z,2.36
2023-02-14T00:02:57.162Z,3.15
2023-02-14T00:05:23.845Z,3.12
2023-02-14T00:07:50.537Z,2.60
2023-02-14T00:10:17.837Z,2.06
2023-02-14T00:12:44.479Z,2.12
2023-02-14T00:15:23.661Z,2.70
2023-02-14T00:17:54.937Z,3.20
2023-02-14T00:20:22.665Z,2.60
2023-02-14T00:22:49.692Z,2.89
2023-02-14T00:25:16.601Z,3.09
2023-02-14T00:27:43.181Z,2.66
2023-02-14T00:30:12.661Z,2.33
2023-02-14T00:32:40.455Z,3.01
2023-02-14T00:35:08.909Z,3.24
2023-02-14T00:37:35.997Z,3.05
2023-02-14T00:40:02.930Z,2.98
2023-02-14T00:42:29.452Z,2.94
2023-02-14T00:44:56.231Z,3.10
2023-02-14T00:47:22.850Z,2.84
2023-02-14T00:49:49.470Z,2.47
2023-02-14T00:52:16.110Z,2.27
2023-02-14T00:54:42.696Z,3.05
2023-02-14T00:57:09.375Z,3.16
2023-02-14T00:59:35.994Z,2.46
2023-02-14T01:02:02.562Z,2.79
2023-02-14T01:04:29.200Z,2.87
2023-02-14T01:06:55.725Z,2.52
2023-02-14T01:09:22.714Z,2.58
2023-02-14T01:11:49.260Z,2.68
2023-02-14T01:14:15.791Z,2.50
2023-02-14T01:16:42.530Z,2.75
2023-02-14T01:19:09.381Z,2.88
2023-02-14T01:21:36.042Z,1.55
2023-02-14T01:24:06.314Z,3.03
2023-02-14T01:26:34.278Z,1.24
2023-02-14T01:29:01.529Z,2.63
2023-02-14T01:31:30.216Z,2.32
2023-02-14T01:33:58.168Z,2.31
2023-02-14T01:36:27.730Z,2.84
2023-02-14T01:38:59.537Z,2.52
2023-02-14T01:41:31.545Z,2.87
2023-02-14T01:44:04.655Z,2.83
2023-02-14T01:46:33.800Z,2.82
2023-02-14T01:49:14.720Z,2.67
2023-02-14T01:51:47.283Z,2.33
2023-02-14T01:54:14.046Z,2.83
2023-02-14T01:56:45.910Z,2.78
2023-02-14T01:59:18.604Z,2.63
2023-02-14T02:01:48.214Z,2.65
2023-02-14T02:04:22.188Z,2.58
2023-02-14T02:06:56.709Z,2.97
2023-02-14T02:09:23.188Z,2.96
2023-02-14T02:11:49.911Z,2.20
2023-02-14T02:14:19.605Z,2.98
2023-02-14T02:17:08.644Z,2.95
2023-02-14T02:20:21.110Z,2.88
2023-02-14T02:23:08.507Z,2.90
2023-02-14T02:25:50.136Z,2.73
2023-02-14T02:28:53.044Z,2.55
2023-02-14T02:32:13.344Z,2.45
2023-02-14T02:35:05.749Z,1.98
2023-02-14T02:37:54.051Z,2.36
2023-02-14T02:40:44.891Z,2.32
2023-02-14T02:43:17.392Z,2.26
2023-02-14T02:46:11.787Z,2.21
2023-02-14T02:48:45.284Z,2.20
2023-02-14T02:51:39.675Z,2.16
2023-02-14T02:54:31.579Z,2.20
2023-02-14T02:57:01.963Z,2.20
2023-02-14T02:59:32.538Z,1.86
2023-02-14T03:02:12.862Z,1.65
2023-02-14T03:04:56.297Z,1.42
2023-02-14T03:07:34.852Z,1.79
2023-02-14T03:10:15.433Z,2.09
2023-02-14T03:13:09.144Z,1.54
2023-02-14T03:16:10.261Z,2.04
2023-02-14T03:18:44.121Z,2.02
2023-02-14T03:21:27.765Z,2.03
2023-02-14T03:24:01.313Z,2.05
2023-02-14T03:26:37.814Z,1.92
2023-02-14T03:29:18.852Z,1.56
2023-02-14T03:32:03.797Z,2.16
2023-02-14T03:35:02.810Z,1.75
2023-02-14T03:37:47.157Z,2.17
2023-02-14T03:40:16.031Z,2.18
2023-02-14T03:43:04.582Z,2.06
2023-02-14T03:45:39.571Z,1.56
2023-02-14T03:48:09.992Z,1.92
2023-02-14T03:50:41.212Z,1.85
2023-02-14T03:53:10.040Z,2.15
2023-02-14T03:55:44.500Z,2.15
2023-02-14T03:58:20.812Z,1.02
2023-02-14T04:00:50.408Z,1.81
2023-02-14T04:03:19.737Z,2.00
2023-02-14T04:05:52.470Z,2.17
2023-02-14T04:08:24.551Z,2.11
2023-02-14T04:10:52.814Z,1.98
2023-02-14T04:13:19.779Z,1.69
2023-02-14T04:15:46.344Z,1.90
2023-02-14T04:18:31.580Z,1.46
2023-02-14T04:20:58.560Z,2.09
2023-02-14T04:23:25.279Z,2.04
2023-02-14T04:25:51.990Z,1.02
2023-02-14T04:28:18.530Z,1.23
2023-02-14T04:30:45.036Z,1.94
2023-02-14T04:33:11.584Z,1.88
2023-02-14T04:35:38.129Z,1.83
2023-02-14T04:38:05.655Z,1.52
2023-02-14T04:40:32.505Z,1.83
2023-02-14T04:43:00.555Z,1.70
2023-02-14T04:45:29.617Z,1.06
2023-02-14T04:47:56.298Z,0.96
2023-02-14T04:50:23.565Z,0.20
2023-02-14T04:52:50.130Z,1.73
2023-02-14T04:55:19.888Z,1.03
2023-02-14T04:57:46.550Z,1.53
2023-02-14T05:00:13.730Z,0.84
2023-02-14T05:02:40.264Z,1.58
2023-02-14T05:05:07.291Z,1.61
2023-02-14T05:07:33.763Z,0.55
2023-02-14T05:10:00.335Z,0.76
2023-02-14T05:12:27.292Z,1.05
2023-02-14T05:14:53.878Z,1.20
2023-02-14T05:17:20.463Z,0.49
2023-02-14T05:19:47.004Z,1.04
2023-02-14T05:22:13.512Z,0.18
2023-02-14T05:24:40.064Z,0.91
2023-02-14T05:27:07.670Z,1.28
2023-02-14T05:29:34.225Z,0.19
2023-02-14T05:32:00.778Z,0.78
2023-02-14T05:34:27.766Z,1.19
2023-02-14T05:36:55.037Z,1.07
2023-02-14T05:39:21.725Z,0.64
2023-02-14T05:41:48.386Z,0.91
2023-02-14T05:44:14.911Z,0.79
2023-02-14T05:46:41.493Z,1.45
2023-02-14T05:49:07.980Z,1.34
2023-02-14T05:51:34.602Z,0.56
2023-02-14T05:54:01.511Z,1.01
2023-02-14T05:56:28.147Z,1.42
2023-02-14T05:58:54.856Z,1.27
2023-02-14T06:01:21.523Z,1.46
2023-02-14T06:03:48.023Z,0.98
2023-02-14T06:06:14.555Z,0.62
2023-02-14T06:08:41.230Z,1.09
2023-02-14T06:11:07.778Z,1.47
2023-02-14T06:13:34.304Z,1.61
2023-02-14T06:16:03.519Z,1.18
2023-02-14T06:18:30.076Z,1.07
2023-02-14T06:20:57.666Z,1.49
2023-02-14T06:23:24.493Z,1.51
2023-02-14T06:25:51.055Z,1.08
2023-02-14T06:28:17.607Z,1.29
2023-02-14T06:30:46.662Z,1.55
2023-02-14T06:33:13.330Z,1.63
2023-02-14T06:35:39.883Z,1.35
2023-02-14T06:38:06.379Z,1.70
2023-02-14T06:40:33.048Z,1.66
2023-02-14T06:42:59.774Z,1.63
2023-02-14T06:45:26.328Z,1.36
2023-02-14T06:47:52.929Z,0.80
2023-02-14T06:50:19.589Z,1.75
2023-02-14T06:52:46.125Z,1.32
2023-02-14T06:55:13.925Z,1.74
2023-02-14T06:57:40.853Z,1.24
2023-02-14T07:00:08.224Z,1.89
2023-02-14T07:02:34.801Z,1.85
2023-02-14T07:05:01.683Z,1.75
2023-02-14T07:07:28.235Z,1.41
2023-02-14T07:09:54.805Z,1.16
2023-02-14T07:12:21.353Z,0.75
2023-02-14T07:14:47.875Z,1.09
2023-02-14T07:17:14.394Z,1.51
2023-02-14T07:19:40.982Z,1.20
2023-02-14T07:22:07.590Z,1.80
2023-02-14T07:24:34.152Z,1.75
2023-02-14T07:27:00.640Z,1.92
2023-02-14T07:29:27.201Z,1.87
2023-02-14T07:31:54.426Z,1.70
2023-02-14T07:34:21.146Z,2.08
2023-02-14T07:36:47.610Z,2.00
2023-02-14T07:39:14.206Z,1.92
2023-02-14T07:41:40.744Z,1.94
2023-02-14T07:44:07.365Z,2.21
2023-02-14T07:46:33.957Z,1.56
2023-02-14T07:49:00.586Z,1.65
2023-02-14T07:51:27.164Z,2.37
2023-02-14T07:53:53.707Z,2.04
2023-02-14T07:56:20.264Z,2.49
2023-02-14T07:58:46.807Z,2.52
2023-02-14T08:01:13.423Z,2.45
2023-02-14T08:03:39.949Z,2.14
2023-02-14T08:06:06.464Z,2.67
2023-02-14T08:08:33.141Z,1.98
2023-02-14T08:11:00.074Z,2.67
2023-02-14T08:13:26.782Z,2.46
2023-02-14T08:16:06.155Z,2.73
2023-02-14T08:18:38.546Z,2.66
2023-02-14T08:21:07.128Z,2.60
2023-02-14T08:23:34.446Z,2.38
2023-02-14T08:26:01.210Z,2.74
2023-02-14T08:28:28.084Z,2.23
2023-02-14T08:30:55.322Z,2.57
2023-02-14T08:33:22.424Z,2.76
2023-02-14T08:35:50.860Z,2.01
2023-02-14T08:38:17.370Z,2.71
2023-02-14T08:40:44.492Z,2.83
2023-02-14T08:43:11.536Z,2.51
2023-02-14T08:45:38.909Z,2.58
2023-02-14T08:48:09.653Z,1.91
2023-02-14T08:50:37.121Z,2.53
2023-02-14T08:53:08.961Z,2.53
2023-02-14T08:55:36.016Z,2.40
2023-02-14T08:58:03.687Z,2.73
2023-02-14T09:00:30.866Z,2.80
2023-02-14T09:02:57.712Z,2.58
2023-02-14T09:05:24.601Z,2.43
2023-02-14T09:07:51.366Z,2.90
2023-02-14T09:10:21.336Z,2.21
2023-02-14T09:12:48.401Z,1.63
2023-02-14T09:15:15.054Z,1.59
2023-02-14T09:17:41.645Z,2.63
2023-02-14T09:20:10.868Z,2.30
2023-02-14T09:22:37.676Z,2.46
2023-02-14T09:25:04.765Z,1.99
2023-02-14T09:27:32.421Z,2.92
2023-02-14T09:29:59.499Z,2.89
2023-02-14T09:32:29.361Z,3.03
2023-02-14T09:34:56.146Z,2.16
2023-02-14T09:37:42.041Z,2.18
2023-02-14T09:40:09.178Z,2.42
2023-02-14T09:42:41.651Z,2.22
2023-02-14T09:45:19.591Z,2.02
2023-02-14T09:47:56.287Z,2.25
2023-02-14T09:50:34.682Z,2.52
2023-02-14T09:53:25.898Z,2.40
2023-02-14T09:55:56.070Z,2.81
2023-02-14T09:58:39.700Z,1.96
2023-02-14T10:01:12.072Z,2.67
2023-02-14T10:03:47.668Z,2.76
2023-02-14T10:07:09.548Z,2.80
2023-02-14T10:10:13.892Z,2.54
2023-02-14T10:12:46.108Z,1.96
2023-02-14T10:15:21.957Z,1.87
2023-02-14T10:17:55.126Z,1.94
2023-02-14T10:20:41.587Z,1.79
2023-02-14T10:23:38.250Z,2.38
2023-02-14T10:26:09.644Z,2.19
2023-02-14T10:28:42.425Z,2.51
2023-02-14T10:31:23.095Z,2.75
2023-02-14T10:34:09.730Z,2.83
2023-02-14T10:36:45.216Z,3.00
2023-02-14T10:40:01.058Z,2.97
2023-02-14T10:42:49.421Z,3.22
2023-02-14T10:45:39.200Z,3.31
2023-02-14T10:48:13.462Z,3.47
2023-02-14T10:51:13.854Z,3.74
2023-02-14T10:53:53.249Z,3.79
2023-02-14T10:57:09.039Z,3.57
2023-02-14T10:59:51.220Z,3.13
2023-02-14T11:02:23.339Z,3.52
2023-02-14T11:04:50.017Z,3.59
2023-02-14T11:07:18.862Z,3.93
2023-02-14T11:09:45.633Z,3.86
2023-02-14T11:12:12.521Z,3.05
2023-02-14T11:14:40.290Z,3.95
2023-02-14T11:17:30.399Z,4.00
2023-02-14T11:19:58.139Z,3.58
2023-02-14T11:22:31.763Z,2.69
2023-02-14T11:25:22.313Z,2.98
2023-02-14T11:27:52.377Z,3.21
2023-02-14T11:30:26.716Z,3.18
2023-02-14T11:32:56.141Z,3.06
2023-02-14T11:35:27.661Z,2.90
2023-02-14T11:37:56.215Z,3.72
2023-02-14T11:40:38.053Z,3.79
2023-02-14T11:43:14.434Z,3.43
2023-02-14T11:45:46.932Z,3.59
2023-02-14T11:48:19.733Z,3.94
2023-02-14T11:51:06.646Z,3.91
2023-02-14T11:53:49.326Z,3.59
2023-02-14T11:56:17.674Z,4.02
2023-02-14T11:59:00.036Z,4.30
2023-02-14T12:01:38.676Z,4.08
2023-02-14T12:04:12.242Z,3.83
2023-02-14T12:06:38.866Z,3.84
2023-02-14T12:09:23.373Z,4.07
2023-02-14T12:12:06.639Z,3.60
2023-02-14T12:14:36.500Z,3.59
2023-02-14T12:17:23.766Z,4.00
2023-02-14T12:20:09.246Z,3.77
2023-02-14T12:22:43.425Z,3.80
2023-02-14T12:25:27.257Z,3.43
2023-02-14T12:28:09.761Z,2.93
2023-02-14T12:30:36.365Z,2.22
2023-02-14T12:33:05.906Z,3.26
2023-02-14T12:35:53.617Z,3.96
2023-02-14T12:38:50.094Z,3.42
2023-02-14T12:41:27.121Z,4.04
2023-02-14T12:43:56.582Z,3.80
2023-02-14T12:46:51.469Z,4.33
2023-02-14T12:49:26.701Z,4.46
2023-02-14T12:52:10.044Z,4.35
2023-02-14T12:54:54.335Z,4.47
2023-02-14T12:57:41.194Z,4.61
2023-02-14T13:00:12.742Z,4.73
2023-02-14T13:03:14.287Z,4.59
2023-02-14T13:06:18.423Z,5.00
2023-02-14T13:09:19.019Z,5.13
2023-02-14T13:12:08.346Z,4.77
2023-02-14T13:14:56.303Z,5.22
2023-02-14T13:17:38.024Z,5.17
2023-02-14T13:20:39.825Z,4.93
2023-02-14T13:23:14.349Z,4.89
2023-02-14T13:25:50.001Z,4.61
2023-02-14T13:28:18.665Z,5.02
2023-02-14T13:30:45.326Z,5.09
2023-02-14T13:33:27.203Z,4.67
2023-02-14T13:36:07.858Z,4.90
2023-02-14T13:38:43.362Z,4.78
2023-02-14T13:41:11.222Z,4.76
2023-02-14T13:43:58.143Z,5.06
2023-02-14T13:46:34.036Z,5.08
2023-02-14T13:49:15.377Z,5.04
2023-02-14T13:51:51.229Z,4.71
2023-02-14T13:54:44.992Z,4.28
2023-02-14T13:57:36.481Z,5.03
2023-02-14T14:00:18.970Z,5.18
2023-02-14T14:02:53.230Z,5.19
2023-02-14T14:05:47.634Z,5.35
2023-02-14T14:08:36.531Z,4.77
2023-02-14T14:11:22.960Z,4.99
2023-02-14T14:13:52.268Z,4.77
2023-02-14T14:16:27.959Z,4.27
2023-02-14T14:19:00.663Z,4.65
2023-02-14T14:22:01.767Z,4.61
2023-02-14T14:24:30.976Z,4.72
2023-02-14T14:26:58.978Z,4.82
2023-02-14T14:29:52.352Z,4.82
2023-02-14T14:32:25.462Z,4.70
2023-02-14T14:35:03.965Z,4.61
2023-02-14T14:37:37.234Z,4.17
2023-02-14T14:40:06.740Z,4.44
2023-02-14T14:42:39.123Z,4.44
2023-02-14T14:45:27.630Z,4.29
2023-02-14T14:48:00.468Z,4.43
2023-02-14T14:50:30.470Z,4.33
2023-02-14T14:53:07.452Z,4.38
2023-02-14T14:55:37.398Z,4.32
2023-02-14T14:58:08.322Z,4.50
2023-02-14T15:00:38.329Z,3.28
2023-02-14T15:03:15.522Z,3.74
2023-02-14T15:05:51.092Z,4.47
2023-02-14T15:08:21.832Z,4.40
2023-02-14T15:11:05.380Z,3.69
2023-02-14T15:13:50.114Z,2.82
2023-02-14T15:16:40.799Z,4.43
2023-02-14T15:19:12.230Z,4.28
2023-02-14T15:21:44.231Z,4.21
2023-02-14T15:24:18.502Z,3.85
2023-02-14T15:26:47.847Z,4.29
2023-02-14T15:29:26.510Z,3.97
2023-02-14T15:31:54.290Z,4.05
2023-02-14T15:34:25.041Z,3.77
2023-02-14T15:36:56.633Z,4.14
2023-02-14T15:39:34.592Z,3.21
2023-02-14T15:42:01.626Z,3.72
2023-02-14T15:44:28.448Z,3.45
2023-02-14T15:47:03.307Z,3.79
2023-02-14T15:49:36.778Z,3.99
2023-02-14T15:52:05.710Z,3.87
2023-02-14T15:54:47.761Z,3.64
2023-02-14T15:57:28.302Z,3.72
2023-02-14T15:59:55.307Z,3.56
2023-02-14T16:02:37.917Z,3.80
2023-02-14T16:05:26.176Z,3.74
2023-02-14T16:08:39.196Z,3.52
2023-02-14T16:11:15.888Z,3.71
2023-02-14T16:13:45.032Z,3.67
2023-02-14T16:16:14.397Z,3.11
2023-02-14T16:18:52.134Z,3.54
2023-02-14T16:21:21.455Z,3.22
2023-02-14T16:24:08.097Z,3.40
2023-02-14T16:26:38.137Z,3.07
2023-02-14T16:29:06.275Z,3.02
2023-02-14T16:31:34.174Z,3.18
2023-02-14T16:34:00.842Z,2.79
2023-02-14T16:36:34.467Z,3.03
2023-02-14T16:39:05.322Z,2.07
2023-02-14T16:41:34.404Z,2.07
2023-02-14T16:44:01.389Z,2.58
2023-02-14T16:46:35.020Z,2.53
2023-02-14T16:49:02.358Z,2.20
2023-02-14T16:51:32.578Z,2.78
2023-02-14T16:54:02.741Z,2.76
2023-02-14T16:56:37.306Z,2.74
2023-02-14T16:59:04.491Z,2.69
2023-02-14T17:01:33.244Z,2.29
2023-02-14T17:04:00.275Z,1.59
2023-02-14T17:06:28.339Z,1.98
2023-02-14T17:08:56.905Z,2.15
2023-02-14T17:11:24.989Z,2.81
2023-02-14T17:13:52.966Z,2.20
2023-02-14T17:16:19.559Z,2.42
2023-02-14T17:18:49.611Z,1.82
2023-02-14T17:21:20.052Z,2.41
2023-02-14T17:23:46.782Z,1.39
2023-02-14T17:26:14.295Z,1.37
2023-02-14T17:28:40.871Z,1.93
2023-02-14T17:31:08.153Z,1.13
2023-02-14T17:33:37.370Z,2.22
2023-02-14T17:36:11.508Z,1.25
2023-02-14T17:38:39.253Z,2.42
2023-02-14T17:41:13.368Z,2.51
2023-02-14T17:43:40.170Z,1.83
2023-02-14T17:46:06.873Z,2.16
2023-02-14T17:48:33.852Z,2.09
2023-02-14T17:51:05.333Z,1.63
2023-02-14T17:53:33.249Z,2.17
2023-02-14T17:56:18.057Z,2.40
2023-02-14T17:58:47.680Z,2.11
2023-02-14T18:01:15.809Z,2.36
2023-02-14T18:03:43.208Z,2.05
2023-02-14T18:06:11.458Z,2.23
2023-02-14T18:08:40.821Z,1.95
2023-02-14T18:11:11.440Z,2.05
2023-02-14T18:13:40.407Z,2.27
2023-02-14T18:16:09.597Z,2.23
2023-02-14T18:18:36.821Z,1.29
2023-02-14T18:21:04.949Z,2.13
2023-02-14T18:23:32.950Z,1.79
2023-02-14T18:26:04.338Z,2.16
2023-02-14T18:28:32.253Z,1.90
2023-02-14T18:31:06.666Z,1.71
2023-02-14T18:33:33.980Z,0.89
2023-02-14T18:36:05.778Z,2.00
2023-02-14T18:38:32.417Z,1.43
2023-02-14T18:41:06.746Z,1.88
2023-02-14T18:43:33.797Z,2.11
2023-02-14T18:46:05.337Z,2.14
2023-02-14T18:48:32.568Z,2.14
2023-02-14T18:51:08.730Z,1.95
2023-02-14T18:53:36.502Z,1.95
2023-02-14T18:56:05.164Z,2.08
2023-02-14T18:58:31.933Z,1.75
2023-02-14T19:00:59.490Z,2.20
2023-02-14T19:03:26.173Z,2.01
2023-02-14T19:05:53.550Z,2.10
2023-02-14T19:08:20.110Z,1.84
2023-02-14T19:10:46.625Z,2.40
2023-02-14T19:13:13.113Z,1.87
2023-02-14T19:15:39.675Z,2.35
2023-02-14T19:18:06.221Z,2.49
2023-02-14T19:20:32.760Z,2.64
2023-02-14T19:22:59.377Z,2.57
2023-02-14T19:25:26.530Z,2.50
2023-02-14T19:27:53.083Z,2.53
2023-02-14T19:30:19.787Z,2.77
2023-02-14T19:32:46.434Z,2.79
2023-02-14T19:35:12.965Z,2.20
2023-02-14T19:37:39.503Z,2.55
2023-02-14T19:40:07.170Z,2.50
2023-02-14T19:42:33.756Z,2.65
2023-02-14T19:45:00.438Z,2.75
2023-02-14T19:47:39.880Z,2.44
2023-02-14T19:50:12.414Z,2.45
2023-02-14T19:52:39.610Z,2.51
2023-02-14T19:55:07.457Z,1.96
2023-02-14T19:57:34.026Z,2.63
2023-02-14T20:00:00.736Z,2.44
2023-02-14T20:02:27.307Z,2.81
2023-02-14T20:04:58.804Z,2.62
2023-02-14T20:07:25.464Z,2.50
2023-02-14T20:09:51.983Z,1.99
2023-02-14T20:12:18.526Z,2.17
2023-02-14T20:14:51.209Z,2.22
2023-02-14T20:17:18.389Z,2.70
2023-02-14T20:19:45.270Z,2.72
2023-02-14T20:22:11.813Z,2.39
2023-02-14T20:24:38.421Z,2.47
2023-02-14T20:27:05.244Z,2.20
2023-02-14T20:29:32.353Z,2.10
2023-02-14T20:32:00.101Z,2.47
2023-02-14T20:34:29.760Z,2.46
2023-02-14T20:36:56.439Z,2.05
2023-02-14T20:39:28.602Z,2.22
2023-02-14T20:41:55.330Z,1.77
2023-02-14T20:44:22.868Z,2.36
2023-02-14T20:46:51.766Z,1.85
2023-02-14T20:49:20.212Z,2.21
2023-02-14T20:51:49.650Z,1.89
2023-02-14T20:54:20.442Z,2.17
2023-02-14T20:56:47.634Z,2.38
2023-02-14T20:59:14.770Z,2.38
2023-02-14T21:01:41.446Z,1.82
2023-02-14T21:04:08.260Z,2.20
2023-02-14T21:06:35.667Z,2.53
2023-02-14T21:09:03.262Z,2.38
2023-02-14T21:11:29.956Z,2.00
2023-02-14T21:13:59.731Z,1.57
2023-02-14T21:16:28.703Z,2.39
2023-02-14T21:18:59.071Z,2.37
2023-02-14T21:21:32.247Z,2.37
2023-02-14T21:24:01.942Z,1.69
2023-02-14T21:26:28.994Z,2.08
2023-02-14T21:28:56.985Z,2.33
2023-02-14T21:31:25.840Z,1.70
2023-02-14T21:33:55.292Z,2.31
2023-02-14T21:36:23.638Z,2.14
2023-02-14T21:38:50.673Z,2.36
2023-02-14T21:41:19.927Z,2.33
2023-02-14T21:43:47.870Z,1.69
2023-02-14T21:46:17.447Z,1.82
2023-02-14T21:49:03.166Z,2.45
2023-02-14T21:51:31.151Z,2.18
2023-02-14T21:54:01.683Z,2.46
2023-02-14T21:56:28.360Z,2.08
2023-02-14T21:58:55.812Z,1.78
2023-02-14T22:01:31.595Z,2.36
2023-02-14T22:03:59.395Z,1.90
2023-02-14T22:06:27.754Z,2.32
2023-02-14T22:08:56.593Z,2.14
2023-02-14T22:11:25.414Z,1.99
2023-02-14T22:13:52.149Z,2.31
2023-02-14T22:16:20.653Z,2.37
2023-02-14T22:18:47.924Z,2.18
2023-02-14T22:21:17.834Z,1.75
2023-02-14T22:23:45.085Z,1.76
2023-02-14T22:26:17.679Z,1.96
2023-02-14T22:28:53.820Z,2.17
2023-02-14T22:31:20.939Z,2.13
2023-02-14T22:33:49.522Z,1.99
2023-02-14T22:36:16.706Z,1.75
2023-02-14T22:38:43.693Z,2.00
2023-02-14T22:41:16.049Z,2.00
2023-02-14T22:43:43.481Z,2.17
2023-02-14T22:46:17.137Z,2.23
2023-02-14T22:48:44.326Z,1.74
2023-02-14T22:51:14.538Z,2.25
2023-02-14T22:53:41.132Z,1.63
2023-02-14T22:56:22.050Z,1.72
2023-02-14T22:58:48.723Z,2.04
2023-02-14T23:01:17.833Z,1.67
2023-02-14T23:03:45.679Z,2.08
2023-02-14T23:06:13.344Z,2.24
2023-02-14T23:08:41.353Z,2.25
2023-02-14T23:11:10.291Z,2.32
2023-02-14T23:13:56.830Z,2.12
2023-02-14T23:16:43.412Z,1.93
2023-02-14T23:19:36.721Z,2.23
2023-02-14T23:22:06.740Z,2.53
2023-02-14T23:24:33.297Z,2.07
2023-02-14T23:26:59.994Z,2.31
2023-02-14T23:29:26.585Z,2.24
2023-02-14T23:31:53.202Z,2.18
2023-02-14T23:34:20.068Z,2.32
2023-02-14T23:36:46.888Z,2.21
2023-02-14T23:39:13.473Z,2.16
2023-02-14T23:41:52.067Z,1.71
2023-02-14T23:44:23.845Z,2.21
2023-02-14T23:46:52.788Z,1.21
2023-02-14T23:49:20.000Z,1.80
2023-02-14T23:51:47.976Z,1.45
2023-02-14T23:54:15.011Z,2.07
2023-02-14T23:56:42.091Z,1.52
2023-02-14T23:59:09.662Z,1.83
